Time;durP1;ratioP1;P1;durP2;ratioP2;P2;SDS_P1;SDS_P2;PMS_P1;PMS_P2;Temp;Humidity;BMP_temperature;BMP_pressure;BME280_temperature;BME280_humidity;BME280_pressure;Samples;Min_cycle;Max_cycle;Signal;HPM_P1;HPM_P2
2023/09/08 00:00:52;;;;;;;;;;;21.10;99.90;;;;;;7333892;19;109957;-65
2023/09/08 00:03:21;;;;;;;;;;;21.10;99.90;;;;;;7332164;19;111422;-64
2023/09/08 00:05:49;;;;;;;;;;;21.10;99.90;;;;;;7331299;19;113861;-64
2023/09/08 00:08:16;;;;;;;;;;;21.00;99.90;;;;;;7335854;19;108944;-64
2023/09/08 00:10:43;;;;;;;;;;;21.00;99.90;;;;;;7334107;19;108806;-64
2023/09/08 00:13:10;;;;;;;;;;;20.90;99.90;;;;;;7332631;19;110384;-64
2023/09/08 00:15:37;;;;;;;;;;;20.90;99.90;;;;;;7341812;19;108572;-64
2023/09/08 00:18:04;;;;;;;;;;;20.80;99.90;;;;;;7336670;19;109175;-64
2023/09/08 00:20:31;;;;;;;;;;;20.80;99.90;;;;;;7332072;19;108769;-64
2023/09/08 00:22:58;;;;;;;;;;;20.70;99.90;;;;;;7332703;19;109945;-64
2023/09/08 00:25:28;;;;;;;;;;;20.70;99.90;;;;;;7334212;19;109255;-64
2023/09/08 00:27:55;;;;;;;;;;;20.70;99.90;;;;;;7334052;19;108863;-64
2023/09/08 00:30:22;;;;;;;;;;;20.60;99.90;;;;;;7328000;19;110562;-64
2023/09/08 00:32:49;;;;;;;;;;;20.60;99.90;;;;;;7330889;19;111000;-64
2023/09/08 00:35:17;;;;;;;;;;;20.60;99.90;;;;;;7331079;19;109671;-64
2023/09/08 00:37:44;;;;;;;;;;;20.60;99.90;;;;;;7337007;19;109198;-64
2023/09/08 00:40:11;;;;;;;;;;;20.60;99.90;;;;;;7328870;19;109493;-64
2023/09/08 00:42:38;;;;;;;;;;;20.50;99.90;;;;;;7330188;19;110146;-64
2023/09/08 00:45:06;;;;;;;;;;;20.50;99.90;;;;;;7331061;19;109433;-64
2023/09/08 00:47:33;;;;;;;;;;;20.40;99.90;;;;;;7331217;19;108573;-64
2023/09/08 00:50:04;;;;;;;;;;;20.50;99.90;;;;;;7331111;19;109187;-63
2023/09/08 00:52:32;;;;;;;;;;;20.50;99.90;;;;;;7331173;19;110432;-64
2023/09/08 00:54:59;;;;;;;;;;;20.40;99.90;;;;;;7334007;19;110636;-64
2023/09/08 00:57:26;;;;;;;;;;;20.40;99.90;;;;;;7332133;19;108995;-64
2023/09/08 00:59:54;;;;;;;;;;;20.30;99.90;;;;;;7332987;19;113093;-64
2023/09/08 01:02:22;;;;;;;;;;;20.30;99.90;;;;;;7333650;19;108231;-64
2023/09/08 01:04:49;;;;;;;;;;;20.30;99.90;;;;;;7330936;19;109727;-64
2023/09/08 01:07:19;;;;;;;;;;;20.20;99.90;;;;;;7334988;19;108902;-64
2023/09/08 01:09:46;;;;;;;;;;;20.20;99.90;;;;;;7328430;19;109142;-64
2023/09/08 01:12:15;;;;;;;;;;;20.30;99.90;;;;;;7333387;19;112119;-64
2023/09/08 01:14:42;;;;;;;;;;;20.30;99.90;;;;;;7333172;19;109061;-65
2023/09/08 01:17:09;;;;;;;;;;;20.30;99.90;;;;;;7332613;19;109452;-64
2023/09/08 01:19:36;;;;;;;;;;;20.30;99.90;;;;;;7335450;19;108968;-64
2023/09/08 01:22:07;;;;;;;;;;;20.20;99.90;;;;;;7337937;19;112794;-64
2023/09/08 01:24:39;;;;;;;;;;;20.20;99.90;;;;;;7331362;19;109976;-64
2023/09/08 01:27:08;;;;;;;;;;;20.10;99.90;;;;;;7333150;19;109216;-64
2023/09/08 01:29:36;;;;;;;;;;;20.10;99.90;;;;;;7330813;19;109274;-64
2023/09/08 01:32:04;;;;;;;;;;;20.10;99.90;;;;;;7330830;19;111587;-64
2023/09/08 01:34:31;;;;;;;;;;;20.10;99.90;;;;;;7331689;19;111528;-64
2023/09/08 01:36:59;;;;;;;;;;;20.00;99.90;;;;;;7329293;19;109442;-64
2023/09/08 01:39:27;;;;;;;;;;;19.90;99.90;;;;;;7331475;19;109635;-64
2023/09/08 01:41:54;;;;;;;;;;;19.90;99.90;;;;;;7338413;19;108393;-64
2023/09/08 01:44:21;;;;;;;;;;;19.90;99.90;;;;;;7330355;19;110200;-64
2023/09/08 01:46:51;;;;;;;;;;;19.90;99.90;;;;;;7332857;19;108826;-64
2023/09/08 01:49:18;;;;;;;;;;;19.90;99.90;;;;;;7328180;19;108572;-64
2023/09/08 01:51:45;;;;;;;;;;;19.90;99.90;;;;;;7337247;19;109099;-64
2023/09/08 01:54:12;;;;;;;;;;;19.80;99.90;;;;;;7336498;19;108873;-64
2023/09/08 01:56:39;;;;;;;;;;;19.80;99.90;;;;;;7337728;19;108384;-64
2023/09/08 01:59:06;;;;;;;;;;;19.70;99.90;;;;;;7339633;19;109084;-64
2023/09/08 02:01:33;;;;;;;;;;;19.80;99.90;;;;;;7337848;19;108888;-64
2023/09/08 02:04:00;;;;;;;;;;;19.70;99.90;;;;;;7341867;19;108685;-64
2023/09/08 02:06:27;;;;;;;;;;;19.70;99.90;;;;;;7339978;19;108606;-64
2023/09/08 02:08:54;;;;;;;;;;;19.70;99.90;;;;;;7336410;19;108686;-65
2023/09/08 02:11:22;;;;;;;;;;;19.70;99.90;;;;;;7339272;19;109511;-65
2023/09/08 02:13:49;;;;;;;;;;;19.70;99.90;;;;;;7340453;19;109489;-72
2023/09/08 02:16:16;;;;;;;;;;;19.70;99.90;;;;;;7338826;19;109156;-72
2023/09/08 02:18:43;;;;;;;;;;;19.70;99.90;;;;;;7337130;19;110376;-73
2023/09/08 02:21:11;;;;;;;;;;;19.70;99.90;;;;;;7338064;19;110404;-75
2023/09/08 02:23:38;;;;;;;;;;;19.70;99.90;;;;;;7338700;19;113343;-73
2023/09/08 02:26:06;;;;;;;;;;;19.70;99.90;;;;;;7343909;19;110103;-73
2023/09/08 02:28:33;;;;;;;;;;;19.70;99.90;;;;;;7339169;19;110275;-75
2023/09/08 02:31:00;;;;;;;;;;;19.70;99.90;;;;;;7333307;19;109397;-72
2023/09/08 02:33:28;;;;;;;;;;;19.60;99.90;;;;;;7338711;19;109712;-65
2023/09/08 02:36:00;;;;;;;;;;;19.60;99.90;;;;;;7336879;19;109653;-65
2023/09/08 02:38:27;;;;;;;;;;;19.60;99.90;;;;;;7335852;19;109183;-68
2023/09/08 02:40:54;;;;;;;;;;;19.60;99.90;;;;;;7334705;19;109947;-65
2023/09/08 02:43:22;;;;;;;;;;;19.60;99.90;;;;;;7335921;19;109034;-65
2023/09/08 02:45:49;;;;;;;;;;;19.60;99.90;;;;;;7335492;19;112973;-66
2023/09/08 02:48:16;;;;;;;;;;;19.60;99.90;;;;;;7344039;19;108849;-66
2023/09/08 02:50:43;;;;;;;;;;;19.50;99.90;;;;;;7334712;19;109051;-65
2023/09/08 02:53:10;;;;;;;;;;;19.50;99.90;;;;;;7337140;19;109084;-65
2023/09/08 02:55:37;;;;;;;;;;;19.50;99.90;;;;;;7336301;19;109106;-65
2023/09/08 02:58:05;;;;;;;;;;;19.50;99.90;;;;;;7337213;19;109124;-64
2023/09/08 03:00:32;;;;;;;;;;;19.40;99.90;;;;;;7332541;19;109864;-65
2023/09/08 03:02:59;;;;;;;;;;;19.40;99.90;;;;;;7337232;19;109136;-65
2023/09/08 03:05:26;;;;;;;;;;;19.30;99.90;;;;;;7334386;19;109263;-64
2023/09/08 03:07:53;;;;;;;;;;;19.30;99.90;;;;;;7334410;19;109579;-64
2023/09/08 03:10:20;;;;;;;;;;;19.30;99.90;;;;;;7340122;19;109152;-64
2023/09/08 03:12:47;;;;;;;;;;;19.30;99.90;;;;;;7335306;19;108942;-64
2023/09/08 03:15:14;;;;;;;;;;;19.30;99.90;;;;;;7335977;19;108662;-64
2023/09/08 03:17:41;;;;;;;;;;;19.30;99.90;;;;;;7334953;19;109883;-65
2023/09/08 03:20:10;;;;;;;;;;;19.30;99.90;;;;;;7338761;19;109484;-65
2023/09/08 03:22:37;;;;;;;;;;;19.30;99.90;;;;;;7335708;19;108850;-65
2023/09/08 03:25:05;;;;;;;;;;;19.30;99.90;;;;;;7333920;19;109595;-64
2023/09/08 03:27:32;;;;;;;;;;;19.30;99.90;;;;;;7334755;19;110180;-65
2023/09/08 03:29:59;;;;;;;;;;;19.20;99.90;;;;;;7333951;19;109462;-64
2023/09/08 03:32:28;;;;;;;;;;;19.30;99.90;;;;;;7342054;19;110520;-64
2023/09/08 03:34:56;;;;;;;;;;;19.30;99.90;;;;;;7334680;19;109455;-65
2023/09/08 03:37:23;;;;;;;;;;;19.30;99.90;;;;;;7336312;19;109632;-65
2023/09/08 03:39:50;;;;;;;;;;;19.20;99.90;;;;;;7337300;19;108388;-65
2023/09/08 03:42:17;;;;;;;;;;;19.30;99.90;;;;;;7333883;19;108864;-65
2023/09/08 03:44:44;;;;;;;;;;;19.30;99.90;;;;;;7334086;19;109141;-65
2023/09/08 03:47:11;;;;;;;;;;;19.30;99.90;;;;;;7333664;19;108702;-64
2023/09/08 03:49:38;;;;;;;;;;;19.30;99.90;;;;;;7336164;19;108966;-65
2023/09/08 03:52:05;;;;;;;;;;;19.30;99.90;;;;;;7339934;19;109057;-64
2023/09/08 03:54:32;;;;;;;;;;;19.30;99.90;;;;;;7335500;19;108903;-65
2023/09/08 03:57:00;;;;;;;;;;;19.20;99.90;;;;;;7332204;19;110316;-65
2023/09/08 03:59:26;;;;;;;;;;;19.20;99.90;;;;;;7335947;19;109084;-64
2023/09/08 04:01:54;;;;;;;;;;;19.20;99.90;;;;;;7331585;19;114219;-65
2023/09/08 04:04:22;;;;;;;;;;;19.20;99.90;;;;;;7331938;19;110088;-65
2023/09/08 04:06:49;;;;;;;;;;;19.10;99.90;;;;;;7335131;19;109830;-65
2023/09/08 04:09:16;;;;;;;;;;;19.10;99.90;;;;;;7334789;19;108905;-64
2023/09/08 04:11:43;;;;;;;;;;;19.10;99.90;;;;;;7333573;19;109186;-65
2023/09/08 04:14:10;;;;;;;;;;;19.10;99.90;;;;;;7338562;19;108699;-64
2023/09/08 04:16:37;;;;;;;;;;;19.10;99.90;;;;;;7332485;19;109145;-65
2023/09/08 04:19:04;;;;;;;;;;;19.00;99.90;;;;;;7335288;19;108706;-64
2023/09/08 04:21:32;;;;;;;;;;;19.00;99.90;;;;;;7332394;19;108978;-65
2023/09/08 04:23:59;;;;;;;;;;;19.00;99.90;;;;;;7333173;19;113036;-65
2023/09/08 04:26:26;;;;;;;;;;;19.00;99.90;;;;;;7334045;19;109105;-63
2023/09/08 04:28:53;;;;;;;;;;;19.00;99.90;;;;;;7333022;19;109454;-65
2023/09/08 04:31:21;;;;;;;;;;;19.00;99.90;;;;;;7329506;19;110786;-65
2023/09/08 04:33:49;;;;;;;;;;;19.00;99.90;;;;;;7330786;19;108695;-67
2023/09/08 04:36:16;;;;;;;;;;;19.00;99.90;;;;;;7333788;19;109942;-65
2023/09/08 04:38:44;;;;;;;;;;;18.90;99.90;;;;;;7329088;19;108360;-65
2023/09/08 04:41:11;;;;;;;;;;;18.90;99.90;;;;;;7329298;19;109384;-65
2023/09/08 04:43:38;;;;;;;;;;;18.90;99.90;;;;;;7326957;19;109189;-65
2023/09/08 04:46:05;;;;;;;;;;;18.80;99.90;;;;;;7330622;19;109569;-65
2023/09/08 04:48:32;;;;;;;;;;;18.80;99.90;;;;;;7329918;19;108930;-65
2023/09/08 04:51:00;;;;;;;;;;;18.80;99.90;;;;;;7330600;19;109159;-65
2023/09/08 04:53:27;;;;;;;;;;;18.80;99.90;;;;;;7331133;19;110448;-65
2023/09/08 04:55:55;;;;;;;;;;;18.80;99.90;;;;;;7329338;19;110613;-64
2023/09/08 04:58:22;;;;;;;;;;;18.70;99.90;;;;;;7336171;19;110413;-65
2023/09/08 05:00:49;;;;;;;;;;;18.70;99.90;;;;;;7332771;19;109930;-64
2023/09/08 05:03:16;;;;;;;;;;;18.70;99.90;;;;;;7329641;19;109079;-65
2023/09/08 05:05:44;;;;;;;;;;;18.70;99.90;;;;;;7330040;19;108676;-64
2023/09/08 05:08:11;;;;;;;;;;;18.70;99.90;;;;;;7330096;19;109550;-65
2023/09/08 05:10:38;;;;;;;;;;;18.70;99.90;;;;;;7330711;19;110457;-65
2023/09/08 05:13:08;;;;;;;;;;;18.70;99.90;;;;;;7332000;19;110179;-65
2023/09/08 05:15:59;;;;;;;;;;;18.60;99.90;;;;;;7334662;19;108913;-65
2023/09/08 05:18:27;;;;;;;;;;;18.60;99.90;;;;;;7329361;19;109807;-65
2023/09/08 05:20:54;;;;;;;;;;;18.60;99.90;;;;;;7336112;19;108888;-64
2023/09/08 05:23:21;;;;;;;;;;;18.60;99.90;;;;;;7329096;19;110131;-65
2023/09/08 05:25:48;;;;;;;;;;;18.60;99.90;;;;;;7336165;19;109738;-64
2023/09/08 05:28:15;;;;;;;;;;;18.70;99.90;;;;;;7332130;19;109268;-65
2023/09/08 05:30:43;;;;;;;;;;;18.70;99.90;;;;;;7337970;19;110494;-65
2023/09/08 05:33:10;;;;;;;;;;;18.70;99.90;;;;;;7337881;19;109884;-67
2023/09/08 05:35:37;;;;;;;;;;;18.70;99.90;;;;;;7340927;19;108280;-64
2023/09/08 05:38:05;;;;;;;;;;;18.70;99.90;;;;;;7337517;19;110160;-65
2023/09/08 05:40:32;;;;;;;;;;;18.70;99.90;;;;;;7339870;19;108536;-65
2023/09/08 05:42:59;;;;;;;;;;;18.80;99.90;;;;;;7341308;19;109498;-65
2023/09/08 05:45:26;;;;;;;;;;;18.80;99.90;;;;;;7335820;19;110097;-64
2023/09/08 05:47:53;;;;;;;;;;;18.90;99.90;;;;;;7335033;19;110336;-65
2023/09/08 05:50:20;;;;;;;;;;;18.90;99.90;;;;;;7339513;19;109269;-66
2023/09/08 05:52:47;;;;;;;;;;;18.90;99.90;;;;;;7336610;19;108661;-66
2023/09/08 05:55:14;;;;;;;;;;;19.00;99.90;;;;;;7338954;19;108850;-65
2023/09/08 05:57:42;;;;;;;;;;;19.10;99.90;;;;;;7336105;19;109096;-66
2023/09/08 06:00:12;;;;;;;;;;;19.20;99.90;;;;;;7337633;19;110338;-66
2023/09/08 06:02:40;;;;;;;;;;;19.20;99.90;;;;;;7341108;19;111063;-67
2023/09/08 06:05:07;;;;;;;;;;;19.30;99.90;;;;;;7333454;19;108825;-65
2023/09/08 06:07:35;;;;;;;;;;;19.40;99.90;;;;;;7335268;19;109496;-65
2023/09/08 06:10:04;;;;;;;;;;;19.50;99.90;;;;;;7340511;19;110326;-66
2023/09/08 06:12:32;;;;;;;;;;;19.60;99.90;;;;;;7337339;19;109145;-66
2023/09/08 06:14:59;;;;;;;;;;;19.60;99.90;;;;;;7335817;19;108846;-66
2023/09/08 06:17:26;;;;;;;;;;;19.70;99.90;;;;;;7336522;19;109189;-65
2023/09/08 06:19:53;;;;;;;;;;;19.80;99.90;;;;;;7338233;19;109116;-66
2023/09/08 06:22:20;;;;;;;;;;;19.90;99.90;;;;;;7334801;19;109287;-66
2023/09/08 06:24:47;;;;;;;;;;;20.00;99.90;;;;;;7338499;19;110206;-66
2023/09/08 06:27:15;;;;;;;;;;;20.10;99.90;;;;;;7340187;19;109301;-67
2023/09/08 06:29:43;;;;;;;;;;;20.10;99.90;;;;;;7333180;19;109840;-66
2023/09/08 06:32:10;;;;;;;;;;;20.20;99.90;;;;;;7336871;19;108729;-66
2023/09/08 06:34:38;;;;;;;;;;;20.20;99.90;;;;;;7332958;19;109097;-66
2023/09/08 06:37:05;;;;;;;;;;;20.30;99.90;;;;;;7335376;19;109376;-66
2023/09/08 06:39:32;;;;;;;;;;;20.50;99.90;;;;;;7335641;19;108465;-66
2023/09/08 06:41:59;;;;;;;;;;;20.50;99.90;;;;;;7335914;19;108933;-66
2023/09/08 06:44:26;;;;;;;;;;;20.70;99.90;;;;;;7334855;19;110306;-66
2023/09/08 06:46:54;;;;;;;;;;;20.80;99.90;;;;;;7339683;19;113306;-66
2023/09/08 06:49:21;;;;;;;;;;;20.90;99.90;;;;;;7335105;19;109785;-67
2023/09/08 06:51:48;;;;;;;;;;;21.00;99.90;;;;;;7334444;19;109739;-66
2023/09/08 06:54:16;;;;;;;;;;;21.20;99.90;;;;;;7332237;19;109515;-66
2023/09/08 06:56:43;;;;;;;;;;;21.30;99.90;;;;;;7332994;19;109087;-67
2023/09/08 06:59:10;;;;;;;;;;;21.40;99.90;;;;;;7330698;19;108681;-66
2023/09/08 07:01:37;;;;;;;;;;;21.50;99.90;;;;;;7334453;19;109523;-63
2023/09/08 07:04:05;;;;;;;;;;;21.70;99.90;;;;;;7332917;19;110243;-65
2023/09/08 07:06:32;;;;;;;;;;;21.80;99.90;;;;;;7333436;19;110828;-66
2023/09/08 07:08:59;;;;;;;;;;;21.90;99.90;;;;;;7340040;19;109532;-65
2023/09/08 07:11:27;;;;;;;;;;;22.00;99.90;;;;;;7336498;19;108846;-66
2023/09/08 07:13:54;;;;;;;;;;;22.10;99.90;;;;;;7332095;19;113822;-66
2023/09/08 07:16:21;;;;;;;;;;;22.20;99.90;;;;;;7337062;19;109192;-66
2023/09/08 07:18:48;;;;;;;;;;;22.30;99.90;;;;;;7339251;19;108957;-66
2023/09/08 07:21:15;;;;;;;;;;;22.40;99.90;;;;;;7336754;19;110164;-66
2023/09/08 07:23:43;;;;;;;;;;;22.50;99.90;;;;;;7337587;19;110204;-65
2023/09/08 07:26:10;;;;;;;;;;;22.60;99.90;;;;;;7335586;19;109579;-66
2023/09/08 07:28:37;;;;;;;;;;;22.70;99.90;;;;;;7336895;19;109309;-66
2023/09/08 07:31:04;;;;;;;;;;;22.80;99.90;;;;;;7339816;19;109165;-66
2023/09/08 07:33:32;;;;;;;;;;;22.90;99.90;;;;;;7336796;19;109169;-66
2023/09/08 07:36:03;;;;;;;;;;;22.90;99.90;;;;;;7334101;19;109218;-65
2023/09/08 07:38:31;;;;;;;;;;;23.00;99.90;;;;;;7335149;19;110528;-66
2023/09/08 07:41:01;;;;;;;;;;;23.10;99.90;;;;;;7336703;19;108664;-66
2023/09/08 07:43:28;;;;;;;;;;;23.20;99.90;;;;;;7336232;19;109302;-66
2023/09/08 07:45:56;;;;;;;;;;;23.30;99.90;;;;;;7334454;19;109382;-66
2023/09/08 07:48:23;;;;;;;;;;;23.30;99.90;;;;;;7333556;19;108372;-66
2023/09/08 07:50:50;;;;;;;;;;;23.40;99.90;;;;;;7335567;19;109330;-66
2023/09/08 07:53:17;;;;;;;;;;;23.50;99.90;;;;;;7340256;19;109054;-65
2023/09/08 07:55:44;;;;;;;;;;;23.60;99.90;;;;;;7334004;19;110112;-66
2023/09/08 07:58:12;;;;;;;;;;;23.70;99.90;;;;;;7338501;19;109763;-66
2023/09/08 08:00:39;;;;;;;;;;;23.80;99.90;;;;;;7333760;19;108872;-66
2023/09/08 08:03:06;;;;;;;;;;;23.90;99.90;;;;;;7338154;19;109967;-66
2023/09/08 08:05:33;;;;;;;;;;;24.00;99.90;;;;;;7334426;19;108901;-66
2023/09/08 08:08:01;;;;;;;;;;;24.10;99.90;;;;;;7334283;19;109451;-66
2023/09/08 08:10:28;;;;;;;;;;;24.10;99.90;;;;;;7330797;19;109151;-66
2023/09/08 08:12:55;;;;;;;;;;;24.30;99.90;;;;;;7340914;19;108374;-66
2023/09/08 08:15:22;;;;;;;;;;;24.30;99.90;;;;;;7334067;19;109302;-66
2023/09/08 08:17:49;;;;;;;;;;;24.40;99.90;;;;;;7334824;19;108579;-66
2023/09/08 08:20:17;;;;;;;;;;;24.40;99.90;;;;;;7334521;19;110876;-66
2023/09/08 08:22:45;;;;;;;;;;;24.50;99.90;;;;;;7333622;19;109096;-66
2023/09/08 08:25:13;;;;;;;;;;;24.50;99.90;;;;;;7333126;19;110671;-66
2023/09/08 08:27:40;;;;;;;;;;;24.60;99.90;;;;;;7333067;19;109414;-88
2023/09/08 08:30:07;;;;;;;;;;;24.70;99.90;;;;;;7334768;19;109272;-94
2023/09/08 08:46:26;;;;;;;;;;;25.40;99.90;;;;;;7333017;19;109047;-69
2023/09/08 08:48:54;;;;;;;;;;;25.60;99.90;;;;;;7333214;19;108804;-69
2023/09/08 08:51:22;;;;;;;;;;;25.70;99.90;;;;;;7332742;19;109168;-69
2023/09/08 08:53:49;;;;;;;;;;;25.80;99.90;;;;;;7330812;19;109543;-67
2023/09/08 08:56:18;;;;;;;;;;;25.90;99.90;;;;;;7334209;19;109118;-70
2023/09/08 08:58:45;;;;;;;;;;;26.00;99.90;;;;;;7339233;19;109117;-71
2023/09/08 09:01:12;;;;;;;;;;;26.20;99.90;;;;;;7336827;19;108982;-70
2023/09/08 09:03:40;;;;;;;;;;;26.30;99.90;;;;;;7338682;19;109445;-69
2023/09/08 09:06:07;;;;;;;;;;;26.30;99.90;;;;;;7342169;19;108816;-71
2023/09/08 09:08:36;;;;;;;;;;;26.40;99.90;;;;;;7340331;19;109143;-70
2023/09/08 09:11:04;;;;;;;;;;;26.50;99.90;;;;;;7339975;19;110936;-69
2023/09/08 09:13:31;;;;;;;;;;;26.60;99.90;;;;;;7337588;19;108499;-69
2023/09/08 09:15:59;;;;;;;;;;;26.60;99.90;;;;;;7338364;19;111103;-70
2023/09/08 09:18:29;;;;;;;;;;;26.60;99.90;;;;;;7341163;19;109913;-70
2023/09/08 09:21:01;;;;;;;;;;;26.70;99.90;;;;;;7345583;19;109266;-69
2023/09/08 09:23:32;;;;;;;;;;;26.80;99.90;;;;;;7340361;19;109120;-70
2023/09/08 09:26:01;;;;;;;;;;;26.90;99.90;;;;;;7338206;19;108831;-69
2023/09/08 09:28:28;;;;;;;;;;;27.00;99.90;;;;;;7338965;19;109947;-69
2023/09/08 09:30:57;;;;;;;;;;;27.10;99.90;;;;;;7339842;19;112677;-69
2023/09/08 09:33:24;;;;;;;;;;;27.20;99.90;;;;;;7340593;19;113050;-70
2023/09/08 09:35:53;;;;;;;;;;;27.30;99.90;;;;;;7339627;19;108132;-70
2023/09/08 09:38:21;;;;;;;;;;;27.30;99.90;;;;;;7339176;19;109451;-69
2023/09/08 09:40:48;;;;;;;;;;;27.30;99.90;;;;;;7339817;19;108803;-70
2023/09/08 09:43:16;;;;;;;;;;;27.30;99.90;;;;;;7345847;19;108522;-69
2023/09/08 09:45:44;;;;;;;;;;;27.40;99.90;;;;;;7336529;19;112856;-70
2023/09/08 09:48:12;;;;;;;;;;;27.60;99.90;;;;;;7339831;19;108837;-70
2023/09/08 09:50:40;;;;;;;;;;;27.70;99.90;;;;;;7333333;19;109048;-70
2023/09/08 09:53:11;;;;;;;;;;;27.80;99.90;;;;;;7338789;19;108607;-69
2023/09/08 09:55:39;;;;;;;;;;;27.90;99.90;;;;;;7339203;19;110268;-69
2023/09/08 09:58:08;;;;;;;;;;;28.00;99.90;;;;;;7338354;19;110170;-70
2023/09/08 10:00:36;;;;;;;;;;;28.00;99.90;;;;;;7339877;19;109618;-70
2023/09/08 10:03:04;;;;;;;;;;;28.10;99.90;;;;;;7345265;19;110913;-74
2023/09/08 10:05:32;;;;;;;;;;;28.20;99.90;;;;;;7339742;19;109796;-69
2023/09/08 10:07:59;;;;;;;;;;;28.30;99.90;;;;;;7337994;19;108649;-71
2023/09/08 10:10:30;;;;;;;;;;;28.40;99.90;;;;;;7343494;19;111091;-69
2023/09/08 10:13:00;;;;;;;;;;;28.50;99.90;;;;;;7335614;19;108577;-70
2023/09/08 10:15:28;;;;;;;;;;;28.60;99.90;;;;;;7338823;19;109373;-70
2023/09/08 10:17:57;;;;;;;;;;;28.60;99.90;;;;;;7338702;19;109613;-70
2023/09/08 10:20:24;;;;;;;;;;;28.60;99.90;;;;;;7338803;19;108522;-70
2023/09/08 10:23:15;;;;;;;;;;;28.60;99.90;;;;;;7338309;19;109618;-70
2023/09/08 10:25:43;;;;;;;;;;;28.70;99.90;;;;;;7343559;19;109117;-70
2023/09/08 10:28:12;;;;;;;;;;;28.80;99.90;;;;;;7336026;19;109956;-70
2023/09/08 10:30:40;;;;;;;;;;;28.90;99.90;;;;;;7337353;19;109599;-69
2023/09/08 10:33:08;;;;;;;;;;;29.10;99.90;;;;;;7340821;19;111025;-70
2023/09/08 10:35:35;;;;;;;;;;;29.10;99.90;;;;;;7340165;19;109102;-69
2023/09/08 10:38:21;;;;;;;;;;;29.20;99.90;;;;;;7336189;19;110554;-69
2023/09/08 10:40:48;;;;;;;;;;;29.30;99.90;;;;;;7338385;19;109651;-69
2023/09/08 10:43:15;;;;;;;;;;;29.30;99.90;;;;;;7338277;19;109008;-69
2023/09/08 10:45:42;;;;;;;;;;;29.40;99.90;;;;;;7331020;19;111629;-70
2023/09/08 10:48:10;;;;;;;;;;;29.50;99.90;;;;;;7338892;19;109117;-69
2023/09/08 10:50:41;;;;;;;;;;;29.60;99.90;;;;;;7333813;19;109907;-68
2023/09/08 10:53:16;;;;;;;;;;;29.80;99.90;;;;;;7335300;19;108693;-69
2023/09/08 10:55:43;;;;;;;;;;;29.90;99.90;;;;;;7333901;19;110968;-69
2023/09/08 10:58:16;;;;;;;;;;;30.00;99.90;;;;;;7335731;19;110266;-69
2023/09/08 11:00:45;;;;;;;;;;;30.10;99.90;;;;;;7336280;19;108948;-70
2023/09/08 11:03:12;;;;;;;;;;;30.10;99.90;;;;;;7337874;19;109018;-69
2023/09/08 11:05:41;;;;;;;;;;;30.20;99.90;;;;;;7336378;19;110696;-69
2023/09/08 11:08:08;;;;;;;;;;;30.20;99.90;;;;;;7338589;19;108566;-69
2023/09/08 11:10:37;;;;;;;;;;;30.20;99.90;;;;;;7342706;19;109372;-69
2023/09/08 11:13:04;;;;;;;;;;;30.20;99.90;;;;;;7338051;19;109484;-69
2023/09/08 11:15:32;;;;;;;;;;;30.40;99.90;;;;;;7336007;19;109427;-69
2023/09/08 11:18:04;;;;;;;;;;;30.40;99.90;;;;;;7336205;19;112363;-68
2023/09/08 11:20:31;;;;;;;;;;;30.40;99.90;;;;;;7337085;19;108434;-68
2023/09/08 11:22:59;;;;;;;;;;;30.50;99.90;;;;;;7337576;19;109386;-68
2023/09/08 11:25:26;;;;;;;;;;;30.60;99.90;;;;;;7332973;19;109356;-68
2023/09/08 11:27:54;;;;;;;;;;;30.70;99.90;;;;;;7338186;19;110742;-68
2023/09/08 11:30:21;;;;;;;;;;;30.80;99.90;;;;;;7336287;19;109150;-69
2023/09/08 11:32:48;;;;;;;;;;;30.90;99.90;;;;;;7341879;19;109489;-69
2023/09/08 11:35:16;;;;;;;;;;;31.00;99.90;;;;;;7336288;19;109682;-69
2023/09/08 11:37:43;;;;;;;;;;;31.00;99.90;;;;;;7335289;19;109596;-71
2023/09/08 11:40:13;;;;;;;;;;;31.10;99.90;;;;;;7338690;19;108439;-68
2023/09/08 11:42:44;;;;;;;;;;;31.20;99.90;;;;;;7335214;19;108485;-69
2023/09/08 11:45:19;;;;;;;;;;;31.30;99.90;;;;;;7335307;19;109649;-69
2023/09/08 11:47:49;;;;;;;;;;;31.40;99.90;;;;;;7334870;19;111687;-68
2023/09/08 11:50:18;;;;;;;;;;;31.50;99.90;;;;;;7335512;19;110079;-68
2023/09/08 11:52:46;;;;;;;;;;;31.50;99.90;;;;;;7334276;19;110573;-69
2023/09/08 11:55:14;;;;;;;;;;;31.70;99.90;;;;;;7342900;19;108892;-68
2023/09/08 11:57:43;;;;;;;;;;;31.80;99.90;;;;;;7334104;19;109291;-69
2023/09/08 12:00:14;;;;;;;;;;;31.90;99.90;;;;;;7335554;19;108515;-68
2023/09/08 12:02:41;;;;;;;;;;;32.00;99.90;;;;;;7334351;19;109098;-68
2023/09/08 12:05:22;;;;;;;;;;;32.00;99.90;;;;;;7333821;19;108907;-68
2023/09/08 12:07:53;;;;;;;;;;;32.10;99.90;;;;;;7333920;19;108546;-69
2023/09/08 12:10:20;;;;;;;;;;;32.30;99.90;;;;;;7334248;19;108724;-68
2023/09/08 12:12:55;;;;;;;;;;;32.40;99.90;;;;;;7335089;19;109208;-68
2023/09/08 12:15:38;;;;;;;;;;;32.40;99.90;;;;;;7339300;19;108715;-68
2023/09/08 12:18:07;;;;;;;;;;;32.60;99.90;;;;;;7338861;19;109460;-69
2023/09/08 12:20:36;;;;;;;;;;;32.70;99.90;;;;;;7336837;19;109165;-68
2023/09/08 12:23:04;;;;;;;;;;;32.70;99.90;;;;;;7334425;19;109085;-69
2023/09/08 12:25:31;;;;;;;;;;;32.80;99.90;;;;;;7333490;19;109998;-68
2023/09/08 12:27:59;;;;;;;;;;;33.00;99.90;;;;;;7335830;19;109074;-68
2023/09/08 12:30:32;;;;;;;;;;;33.10;99.90;;;;;;7333568;19;109468;-69
2023/09/08 12:33:01;;;;;;;;;;;33.10;99.90;;;;;;7333797;19;109353;-69
2023/09/08 12:35:29;;;;;;;;;;;33.20;99.90;;;;;;7333952;19;108818;-68
2023/09/08 12:38:03;;;;;;;;;;;33.30;99.90;;;;;;7339367;19;109238;-68
2023/09/08 12:40:32;;;;;;;;;;;33.40;99.90;;;;;;7335906;19;109106;-68
2023/09/08 12:43:00;;;;;;;;;;;33.60;99.90;;;;;;7333729;19;108454;-68
2023/09/08 12:45:47;;;;;;;;;;;33.80;99.90;;;;;;7334393;19;109731;-71
2023/09/08 12:48:14;;;;;;;;;;;33.90;99.90;;;;;;7333959;19;108844;-69
2023/09/08 12:50:41;;;;;;;;;;;33.90;99.90;;;;;;7332174;19;108885;-69
2023/09/08 12:53:08;;;;;;;;;;;33.90;99.90;;;;;;7334158;19;109961;-69
2023/09/08 12:55:35;;;;;;;;;;;34.00;99.90;;;;;;7332452;19;109866;-68
2023/09/08 12:58:03;;;;;;;;;;;34.10;99.90;;;;;;7331236;19;109486;-68
2023/09/08 13:00:30;;;;;;;;;;;34.30;99.90;;;;;;7334808;19;110318;-68
2023/09/08 13:02:57;;;;;;;;;;;34.40;99.70;;;;;;7331325;19;110866;-68
2023/09/08 13:05:24;;;;;;;;;;;34.40;99.90;;;;;;7329731;19;109758;-68
2023/09/08 13:07:51;;;;;;;;;;;34.50;99.70;;;;;;7333650;19;108788;-68
2023/09/08 13:10:20;;;;;;;;;;;34.60;97.90;;;;;;7334953;19;112284;-68
2023/09/08 13:12:48;;;;;;;;;;;34.70;99.80;;;;;;7333119;19;110520;-68
2023/09/08 13:15:15;;;;;;;;;;;34.80;99.30;;;;;;7332367;19;108880;-68
2023/09/08 13:17:43;;;;;;;;;;;34.90;98.10;;;;;;7332275;19;108358;-68
2023/09/08 13:20:11;;;;;;;;;;;35.00;98.80;;;;;;7334885;19;109524;-69
2023/09/08 13:22:38;;;;;;;;;;;35.00;98.00;;;;;;7338040;19;108590;-68
2023/09/08 13:25:05;;;;;;;;;;;35.00;98.00;;;;;;7332337;19;110809;-68
2023/09/08 13:27:32;;;;;;;;;;;35.10;98.30;;;;;;7331243;19;109202;-68
2023/09/08 13:30:10;;;;;;;;;;;35.10;97.60;;;;;;7329977;19;109008;-68
2023/09/08 13:32:37;;;;;;;;;;;35.20;98.20;;;;;;7331289;19;109741;-68
2023/09/08 13:35:08;;;;;;;;;;;35.30;97.30;;;;;;7332468;19;109155;-68
2023/09/08 13:37:37;;;;;;;;;;;35.40;97.70;;;;;;7333648;19;109079;-68
2023/09/08 13:40:05;;;;;;;;;;;35.50;97.90;;;;;;7331184;19;113337;-68
2023/09/08 13:42:34;;;;;;;;;;;35.50;97.60;;;;;;7332499;19;108598;-68
2023/09/08 13:45:01;;;;;;;;;;;35.50;97.20;;;;;;7335621;19;109120;-68
2023/09/08 13:47:29;;;;;;;;;;;35.50;96.00;;;;;;7336776;19;108818;-68
2023/09/08 13:49:57;;;;;;;;;;;35.50;97.20;;;;;;7338183;19;108756;-69
2023/09/08 13:52:28;;;;;;;;;;;35.60;96.40;;;;;;7340407;19;109600;-68
2023/09/08 13:54:58;;;;;;;;;;;35.60;98.00;;;;;;7338773;19;110363;-68
2023/09/08 13:57:46;;;;;;;;;;;35.70;96.30;;;;;;7340330;19;111352;-69
2023/09/08 14:00:15;;;;;;;;;;;35.80;94.90;;;;;;7336460;19;109683;-68
2023/09/08 14:02:43;;;;;;;;;;;35.80;97.30;;;;;;7329659;19;109146;-68
2023/09/08 14:05:17;;;;;;;;;;;36.00;96.90;;;;;;7333065;19;119715;-68
2023/09/08 14:07:52;;;;;;;;;;;36.10;96.60;;;;;;7338963;19;109329;-68
2023/09/08 14:10:32;;;;;;;;;;;36.20;96.80;;;;;;7335022;19;109440;-68
2023/09/08 14:13:02;;;;;;;;;;;36.30;96.00;;;;;;7337655;19;110534;-68
2023/09/08 14:15:29;;;;;;;;;;;36.40;96.10;;;;;;7340600;19;108833;-68
2023/09/08 14:17:57;;;;;;;;;;;36.40;95.50;;;;;;7335613;19;108936;-68
2023/09/08 14:20:24;;;;;;;;;;;36.40;95.80;;;;;;7340267;19;109344;-68
2023/09/08 14:22:51;;;;;;;;;;;36.40;94.20;;;;;;7337862;19;108753;-68